Time;durP1;ratioP1;P1;durP2;ratioP2;P2;SDS_P1;SDS_P2;PMS_P1;PMS_P2;Temp;Humidity;BMP_temperature;BMP_pressure;BME280_temperature;BME280_humidity;BME280_pressure;Samples;Min_cycle;Max_cycle;Signal;HPM_P1;HPM_P2
2022/03/09 00:02:09;;;;;;;1.10;1.00;;;2.00;99.90;;;;;;5031276;28;20884;-89
2022/03/09 00:04:34;;;;;;;1.10;1.00;;;1.90;99.90;;;;;;5046404;28;20599;-90
2022/03/09 00:07:00;;;;;;;2.20;1.37;;;1.70;99.90;;;;;;5029287;28;20785;-90
2022/03/09 00:09:26;;;;;;;1.00;0.90;;;1.70;99.90;;;;;;5030006;28;20181;-90
2022/03/09 00:11:51;;;;;;;1.63;1.53;;;1.80;99.90;;;;;;5048508;28;20237;-89
2022/03/09 00:14:17;;;;;;;0.90;0.80;;;1.80;99.90;;;;;;5028077;28;20199;-90
2022/03/09 00:16:43;;;;;;;2.70;2.50;;;1.60;99.90;;;;;;5029841;28;20261;-89
2022/03/09 00:19:08;;;;;;;0.90;0.80;;;1.80;99.90;;;;;;5028025;28;20648;-90
2022/03/09 00:21:34;;;;;;;1.00;0.90;;;1.90;99.90;;;;;;5029657;28;20202;-89
2022/03/09 00:23:59;;;;;;;1.87;1.77;;;1.70;99.90;;;;;;5029811;28;20196;-90
2022/03/09 00:26:25;;;;;;;1.10;1.00;;;1.60;99.90;;;;;;5030098;28;20179;-90
2022/03/09 00:28:50;;;;;;;1.10;1.00;;;1.40;99.90;;;;;;5026934;28;20223;-89
2022/03/09 00:31:16;;;;;;;1.87;1.73;;;1.50;99.90;;;;;;5041850;28;20183;-89
2022/03/09 00:33:41;;;;;;;1.00;0.90;;;1.50;99.90;;;;;;5047099;28;20191;-89
2022/03/09 00:36:07;;;;;;;1.30;1.20;;;1.50;99.90;;;;;;5030751;28;20586;-90
2022/03/09 00:38:33;;;;;;;1.30;1.20;;;1.70;99.90;;;;;;5027266;28;20238;-90
2022/03/09 00:41:02;;;;;;;1.00;0.90;;;1.70;99.90;;;;;;5030389;28;20556;-89
2022/03/09 00:43:28;;;;;;;1.20;1.10;;;1.50;99.90;;;;;;5029902;28;20272;-89
2022/03/09 00:45:54;;;;;;;1.20;1.10;;;1.40;99.90;;;;;;5044514;28;20465;-89
2022/03/09 00:48:20;;;;;;;1.63;1.53;;;1.40;99.90;;;;;;5035765;28;21212;-89
2022/03/09 00:50:46;;;;;;;1.57;1.47;;;1.40;99.90;;;;;;5011042;28;20183;-89
2022/03/09 00:53:12;;;;;;;1.00;0.90;;;1.50;99.90;;;;;;5021945;28;20215;-90
2022/03/09 00:55:38;;;;;;;1.10;1.00;;;1.50;99.90;;;;;;5029949;28;20520;-89
2022/03/09 00:58:04;;;;;;;1.63;1.53;;;1.50;99.90;;;;;;5046157;28;20180;-90
2022/03/09 01:00:29;;;;;;;3.73;3.53;;;1.50;99.90;;;;;;5030868;28;20438;-90
2022/03/09 01:02:55;;;;;;;1.13;1.03;;;1.60;99.90;;;;;;5044509;28;20560;-90
2022/03/09 01:05:20;;;;;;;1.53;1.30;;;1.40;99.90;;;;;;5030049;28;20187;-90
2022/03/09 01:07:46;;;;;;;1.10;1.00;;;1.40;99.90;;;;;;5032566;28;20195;-89
2022/03/09 01:10:12;;;;;;;2.43;2.33;;;1.50;99.90;;;;;;5034384;28;20191;-90
2022/03/09 01:12:38;;;;;;;1.00;0.90;;;1.50;99.90;;;;;;5031956;28;20187;-89
2022/03/09 01:15:04;;;;;;;1.30;1.20;;;1.40;99.90;;;;;;5032632;28;20458;-89
2022/03/09 01:17:31;;;;;;;1.10;1.00;;;1.30;99.90;;;;;;5049512;28;20536;-90
2022/03/09 01:19:58;;;;;;;1.00;0.90;;;1.40;99.90;;;;;;5021723;28;20446;-89
2022/03/09 01:22:23;;;;;;;1.57;1.47;;;1.20;99.90;;;;;;5030944;28;20457;-89
2022/03/09 01:24:49;;;;;;;1.57;1.47;;;1.20;99.90;;;;;;5047048;28;20823;-90
2022/03/09 01:27:15;;;;;;;2.07;1.97;;;1.20;99.90;;;;;;5033345;28;20199;-90
2022/03/09 01:29:40;;;;;;;1.93;1.73;;;1.20;99.90;;;;;;5016482;28;20194;-89
2022/03/09 01:32:06;;;;;;;2.80;2.60;;;1.20;99.90;;;;;;5014517;28;20195;-89
2022/03/09 01:34:32;;;;;;;3.23;2.10;;;1.10;99.90;;;;;;5016451;28;20717;-90
2022/03/09 01:36:58;;;;;;;1.20;1.10;;;1.10;99.90;;;;;;5015135;28;20485;-89
2022/03/09 01:39:24;;;;;;;1.03;0.93;;;1.10;99.90;;;;;;5016357;28;20191;-89
2022/03/09 01:41:49;;;;;;;1.00;0.90;;;1.00;99.90;;;;;;5033359;28;20242;-89
2022/03/09 01:44:21;;;;;;;2.60;1.90;;;1.10;99.90;;;;;;5016536;28;20507;-89
2022/03/09 01:46:49;;;;;;;1.10;1.00;;;1.00;99.90;;;;;;5014998;28;20191;-89
2022/03/09 01:49:15;;;;;;;1.00;0.90;;;1.00;99.90;;;;;;5016216;28;20423;-90
2022/03/09 01:51:43;;;;;;;1.30;1.20;;;1.10;99.90;;;;;;5032151;28;20438;-90
2022/03/09 01:54:09;;;;;;;1.10;1.00;;;1.30;99.90;;;;;;5014393;28;20442;-89
2022/03/09 01:56:36;;;;;;;1.10;1.00;;;1.20;99.90;;;;;;5013864;28;20481;-90
2022/03/09 01:59:03;;;;;;;1.17;1.07;;;1.10;99.90;;;;;;5032433;28;20519;-89
2022/03/09 02:01:29;;;;;;;1.10;1.00;;;1.10;99.90;;;;;;5024690;28;20449;-89
2022/03/09 02:03:56;;;;;;;1.50;1.40;;;1.00;99.90;;;;;;5015502;28;20445;-89
2022/03/09 02:06:22;;;;;;;1.63;1.53;;;1.10;99.90;;;;;;5002483;28;20541;-89
2022/03/09 02:11:33;;;;;;;1.37;1.27;;;0.90;99.90;;;;;;5033067;28;20472;-89
2022/03/09 02:14:00;;;;;;;1.10;1.00;;;1.00;99.90;;;;;;5015397;28;20422;-89
2022/03/09 02:16:25;;;;;;;2.50;2.40;;;0.80;99.90;;;;;;5014179;28;20597;-89
2022/03/09 02:18:51;;;;;;;1.90;1.80;;;0.60;99.90;;;;;;5015160;28;20513;-89
2022/03/09 02:21:20;;;;;;;1.10;1.00;;;0.70;99.90;;;;;;5013689;28;20562;-89
2022/03/09 02:23:46;;;;;;;1.37;1.27;;;0.70;99.90;;;;;;5014909;28;20234;-89
2022/03/09 02:26:12;;;;;;;1.23;1.13;;;0.80;99.90;;;;;;5009277;28;20533;-88
2022/03/09 02:28:38;;;;;;;1.40;1.30;;;0.70;99.90;;;;;;5022613;28;20572;-89
2022/03/09 02:31:04;;;;;;;1.43;1.33;;;0.60;99.90;;;;;;5029761;28;20454;-89
2022/03/09 02:33:30;;;;;;;1.20;1.10;;;0.70;99.90;;;;;;5048217;28;20492;-89
2022/03/09 02:35:56;;;;;;;1.30;1.20;;;0.60;99.90;;;;;;5027109;28;20466;-89
2022/03/09 02:38:22;;;;;;;2.03;1.83;;;0.50;99.90;;;;;;5031612;28;20628;-89
2022/03/09 02:40:47;;;;;;;1.00;0.90;;;0.70;99.90;;;;;;5031349;28;20701;-89
2022/03/09 02:43:13;;;;;;;1.30;1.20;;;0.80;99.90;;;;;;5032234;28;20473;-89
2022/03/09 02:45:38;;;;;;;1.20;1.10;;;0.80;99.90;;;;;;5046011;28;20183;-89
2022/03/09 02:48:04;;;;;;;1.43;1.33;;;0.60;99.90;;;;;;5048041;28;20191;-89
2022/03/09 02:50:30;;;;;;;1.10;1.00;;;0.70;99.90;;;;;;5047703;28;20184;-89
2022/03/09 02:52:55;;;;;;;3.40;1.50;;;0.60;99.90;;;;;;5031022;28;20187;-89
2022/03/09 02:55:21;;;;;;;1.00;0.90;;;0.60;99.90;;;;;;5023461;28;20228;-89
2022/03/09 02:57:46;;;;;;;1.30;1.20;;;0.60;99.90;;;;;;5048067;28;20183;-89
2022/03/09 03:00:12;;;;;;;1.30;1.20;;;0.50;99.90;;;;;;5032863;28;20191;-88
2022/03/09 03:02:39;;;;;;;1.00;0.90;;;0.50;99.90;;;;;;5046618;28;20660;-89
2022/03/09 03:05:06;;;;;;;5.20;2.00;;;0.60;99.90;;;;;;5031086;28;20446;-89
2022/03/09 03:07:32;;;;;;;1.20;1.10;;;0.70;99.90;;;;;;5029770;28;20978;-89
2022/03/09 03:09:58;;;;;;;1.20;1.10;;;0.90;99.90;;;;;;5031412;28;20440;-89
2022/03/09 03:12:23;;;;;;;1.03;0.93;;;0.80;99.90;;;;;;5029096;28;20449;-89
2022/03/09 03:14:49;;;;;;;1.87;1.67;;;0.90;99.90;;;;;;5031267;28;20353;-89
2022/03/09 03:17:14;;;;;;;1.50;1.40;;;1.20;99.90;;;;;;5046838;28;20219;-89
2022/03/09 03:19:40;;;;;;;2.17;2.07;;;1.40;99.90;;;;;;5047251;28;20191;-89
2022/03/09 03:22:05;;;;;;;1.00;0.90;;;1.30;99.90;;;;;;5028410;28;20194;-89
2022/03/09 03:24:32;;;;;;;2.07;1.50;;;1.20;99.90;;;;;;5030541;28;20191;-89
2022/03/09 03:26:57;;;;;;;1.27;1.17;;;1.00;99.90;;;;;;5030294;28;20188;-89
2022/03/09 03:29:23;;;;;;;1.67;1.57;;;0.80;99.90;;;;;;5029828;28;20566;-88
2022/03/09 03:31:48;;;;;;;2.17;2.07;;;0.90;99.90;;;;;;5030950;28;20647;-89
2022/03/09 03:34:14;;;;;;;1.30;1.20;;;0.70;99.90;;;;;;5046685;28;20666;-89
2022/03/09 03:36:39;;;;;;;1.57;1.47;;;0.60;99.90;;;;;;5028997;28;20215;-89
2022/03/09 03:39:05;;;;;;;1.00;0.90;;;0.80;99.90;;;;;;5046809;28;20221;-89
2022/03/09 03:41:31;;;;;;;2.90;2.70;;;1.40;99.90;;;;;;5018257;28;20587;-89
2022/03/09 03:43:56;;;;;;;1.00;0.90;;;1.30;99.90;;;;;;5039313;28;20217;-88
2022/03/09 03:46:22;;;;;;;1.20;1.10;;;1.20;99.90;;;;;;5030049;28;20199;-89
2022/03/09 03:48:47;;;;;;;1.10;1.00;;;1.30;99.90;;;;;;5029394;28;20904;-89
2022/03/09 03:51:13;;;;;;;1.47;1.37;;;1.00;99.90;;;;;;5029282;28;20220;-89
2022/03/09 03:53:39;;;;;;;1.50;1.40;;;0.80;99.90;;;;;;5029809;28;20184;-89
2022/03/09 03:56:05;;;;;;;1.10;1.00;;;0.70;99.90;;;;;;5046323;28;20560;-89
2022/03/09 03:58:31;;;;;;;1.30;1.20;;;0.60;99.90;;;;;;5030030;28;20195;-89
2022/03/09 04:00:58;;;;;;;1.10;1.00;;;0.50;99.90;;;;;;5029361;28;20434;-90
2022/03/09 04:03:23;;;;;;;1.00;0.90;;;0.40;99.90;;;;;;5029785;28;20211;-89
2022/03/09 04:05:49;;;;;;;1.33;1.23;;;0.40;99.90;;;;;;5030098;28;20481;-89
2022/03/09 04:08:14;;;;;;;1.10;1.00;;;0.20;99.90;;;;;;5028318;28;20592;-89
2022/03/09 04:10:40;;;;;;;1.10;1.00;;;0.10;99.90;;;;;;5029530;28;20179;-89
2022/03/09 04:13:05;;;;;;;1.50;1.40;;;0.20;99.90;;;;;;5029772;28;20241;-89
2022/03/09 04:15:32;;;;;;;1.30;1.20;;;0.40;99.90;;;;;;5030692;28;20667;-89
2022/03/09 04:17:58;;;;;;;2.40;2.10;;;0.40;99.90;;;;;;5031323;28;20215;-89
2022/03/09 04:20:23;;;;;;;1.90;1.80;;;0.20;99.90;;;;;;5031648;28;20525;-89
2022/03/09 04:22:49;;;;;;;1.83;1.73;;;0.00;99.90;;;;;;5028804;28;20242;-89
2022/03/09 04:25:15;;;;;;;1.50;1.40;;;0.30;99.90;;;;;;5027962;28;20202;-89
2022/03/09 04:27:40;;;;;;;1.10;1.00;;;0.20;99.90;;;;;;5024955;28;20207;-89
2022/03/09 04:30:07;;;;;;;2.77;2.50;;;0.20;99.90;;;;;;5028912;28;20286;-89
2022/03/09 04:32:34;;;;;;;1.30;1.20;;;0.30;99.90;;;;;;5029443;28;20187;-89
2022/03/09 04:35:00;;;;;;;1.10;1.00;;;0.30;99.90;;;;;;5027220;28;20521;-89
2022/03/09 04:37:30;;;;;;;1.13;1.03;;;0.30;99.90;;;;;;5029200;28;20477;-89
2022/03/09 04:39:59;;;;;;;1.20;1.10;;;0.30;99.90;;;;;;5031531;28;20971;-89
2022/03/09 04:42:26;;;;;;;1.03;0.93;;;0.30;99.90;;;;;;5023628;28;20434;-89
2022/03/09 04:44:51;;;;;;;1.30;1.20;;;0.40;99.90;;;;;;5031597;28;20572;-89
2022/03/09 04:47:17;;;;;;;1.10;1.00;;;0.60;99.90;;;;;;5033504;28;20442;-88
2022/03/09 04:49:42;;;;;;;1.53;1.43;;;0.40;99.90;;;;;;5035714;28;20739;-89
2022/03/09 04:52:08;;;;;;;1.90;1.80;;;0.80;99.90;;;;;;5031400;28;20270;-89
2022/03/09 04:54:33;;;;;;;1.23;1.13;;;0.40;99.90;;;;;;5035059;28;20187;-90
2022/03/09 04:56:59;;;;;;;1.20;1.10;;;0.40;99.90;;;;;;5033535;28;20215;-89
2022/03/09 04:59:25;;;;;;;1.20;1.10;;;0.30;99.90;;;;;;5033235;28;20187;-89
2022/03/09 05:01:50;;;;;;;1.80;1.70;;;0.30;99.90;;;;;;5033088;28;20278;-89
2022/03/09 05:04:21;;;;;;;1.10;1.00;;;0.40;99.90;;;;;;5032196;28;20188;-89
2022/03/09 05:06:47;;;;;;;1.10;1.00;;;0.30;99.90;;;;;;5014733;28;20188;-89
2022/03/09 05:09:12;;;;;;;1.00;0.90;;;0.40;99.90;;;;;;5032901;28;20449;-89
2022/03/09 05:11:38;;;;;;;4.13;3.83;;;0.30;99.90;;;;;;5034050;28;20190;-89
2022/03/09 05:14:04;;;;;;;1.17;1.07;;;0.30;99.90;;;;;;5029059;28;20180;-88
2022/03/09 05:16:29;;;;;;;1.60;1.50;;;0.30;99.90;;;;;;5030485;28;20214;-89
2022/03/09 05:18:55;;;;;;;1.20;1.10;;;0.20;99.90;;;;;;5032854;28;20586;-89
2022/03/09 05:21:20;;;;;;;1.37;1.27;;;0.10;99.90;;;;;;5030192;28;20261;-89
2022/03/09 05:23:46;;;;;;;1.10;1.00;;;0.10;99.90;;;;;;5033171;28;20551;-89
2022/03/09 05:26:12;;;;;;;1.00;0.90;;;0.20;99.90;;;;;;5031032;28;20196;-89
2022/03/09 05:28:37;;;;;;;1.10;1.00;;;0.30;99.90;;;;;;5030327;28;20258;-90
2022/03/09 05:31:03;;;;;;;1.30;1.20;;;0.30;99.90;;;;;;5031101;28;20195;-89
2022/03/09 05:33:29;;;;;;;1.10;1.00;;;0.20;99.90;;;;;;5033211;28;20535;-90
2022/03/09 05:35:54;;;;;;;1.30;1.20;;;0.10;99.90;;;;;;5030651;28;20468;-90
2022/03/09 05:38:20;;;;;;;1.10;1.00;;;0.00;99.90;;;;;;5016829;28;20187;-90
2022/03/09 05:40:48;;;;;;;1.47;1.37;;;-0.10;99.90;;;;;;5030486;28;20267;-89
2022/03/09 05:43:14;;;;;;;1.20;1.10;;;-0.10;99.90;;;;;;5033812;28;20275;-90
2022/03/09 05:45:39;;;;;;;1.30;1.20;;;0.10;99.90;;;;;;5015904;28;20859;-90
2022/03/09 05:48:05;;;;;;;1.33;1.23;;;0.10;99.90;;;;;;5033607;28;20253;-90
2022/03/09 05:50:31;;;;;;;1.13;1.03;;;0.10;99.90;;;;;;5031773;28;20184;-88
2022/03/09 05:52:56;;;;;;;1.10;1.00;;;-0.20;99.90;;;;;;5024608;28;20188;-90
2022/03/09 05:55:22;;;;;;;7.33;1.67;;;0.00;99.90;;;;;;5028409;28;20667;-89
2022/03/09 05:57:47;;;;;;;1.10;1.00;;;0.00;99.90;;;;;;5025322;28;20245;-89
2022/03/09 06:00:13;;;;;;;1.10;1.00;;;0.00;99.90;;;;;;5018574;28;20203;-90
2022/03/09 06:02:39;;;;;;;1.00;0.90;;;0.00;99.90;;;;;;5028887;28;20202;-88
2022/03/09 06:05:05;;;;;;;1.20;1.10;;;0.10;99.90;;;;;;5025220;28;20510;-88
2022/03/09 06:07:32;;;;;;;3.83;1.73;;;0.20;99.90;;;;;;5024721;28;20851;-90
2022/03/09 06:09:58;;;;;;;1.30;1.20;;;0.10;99.90;;;;;;5012721;28;20434;-89
2022/03/09 06:12:24;;;;;;;1.10;1.00;;;0.00;99.90;;;;;;5009101;28;20466;-89
2022/03/09 06:14:49;;;;;;;1.60;1.50;;;0.20;99.90;;;;;;5031276;28;20441;-90
2022/03/09 06:17:15;;;;;;;1.60;1.50;;;0.10;99.90;;;;;;5025962;28;20224;-88
2022/03/09 06:19:40;;;;;;;1.10;1.00;;;0.00;99.90;;;;;;5028521;28;20176;-88
2022/03/09 06:22:06;;;;;;;1.10;1.00;;;0.00;99.90;;;;;;5023591;28;20664;-89
2022/03/09 06:24:31;;;;;;;1.87;1.77;;;0.10;99.90;;;;;;5028973;28;20265;-89
2022/03/09 06:26:57;;;;;;;1.20;1.10;;;0.00;99.90;;;;;;5029502;28;20222;-90
2022/03/09 06:29:22;;;;;;;1.10;1.00;;;0.20;99.90;;;;;;5030755;28;20280;-88
2022/03/09 06:31:48;;;;;;;1.40;1.30;;;0.50;99.90;;;;;;5027164;28;20668;-89
2022/03/09 06:34:13;;;;;;;1.10;1.00;;;0.60;99.90;;;;;;5021574;28;20545;-89
2022/03/09 06:36:45;;;;;;;1.27;1.17;;;0.50;99.90;;;;;;5031972;28;20770;-89
2022/03/09 06:39:14;;;;;;;1.83;1.73;;;0.40;99.90;;;;;;5026522;28;20176;-89
2022/03/09 06:41:44;;;;;;;1.17;1.07;;;0.30;99.90;;;;;;5023979;28;20442;-89
2022/03/09 06:44:12;;;;;;;1.73;1.63;;;0.50;99.90;;;;;;5032170;28;20524;-90
2022/03/09 06:46:40;;;;;;;1.00;0.90;;;0.80;99.90;;;;;;5012751;28;20432;-90
2022/03/09 06:49:05;;;;;;;1.90;1.77;;;1.10;99.90;;;;;;5030553;28;20495;-90
2022/03/09 06:51:31;;;;;;;1.10;1.00;;;1.10;99.90;;;;;;5009390;28;20438;-90
2022/03/09 06:53:57;;;;;;;1.20;1.10;;;1.30;99.90;;;;;;5032153;28;20184;-91
2022/03/09 06:56:23;;;;;;;2.43;2.23;;;1.40;99.90;;;;;;5026986;28;20216;-90
2022/03/09 06:58:48;;;;;;;1.20;1.10;;;1.50;99.90;;;;;;5005758;28;20991;-91
2022/03/09 07:01:14;;;;;;;1.00;0.90;;;1.40;99.90;;;;;;5028354;28;20602;-91
2022/03/09 07:03:40;;;;;;;1.20;1.10;;;1.50;99.90;;;;;;5032317;28;20667;-91
2022/03/09 07:06:05;;;;;;;1.40;1.30;;;1.50;99.90;;;;;;5006415;28;20218;-91
2022/03/09 07:08:31;;;;;;;1.20;1.10;;;1.50;99.90;;;;;;5029801;28;20594;-91
2022/03/09 07:10:58;;;;;;;1.03;0.93;;;1.70;99.90;;;;;;5032799;28;20180;-91
2022/03/09 07:13:24;;;;;;;2.53;2.43;;;2.00;99.90;;;;;;5029679;28;20562;-91
2022/03/09 07:15:49;;;;;;;1.17;1.07;;;2.30;99.90;;;;;;5017714;28;20442;-91
2022/03/09 07:18:15;;;;;;;1.63;1.50;;;2.40;99.90;;;;;;5034981;28;20183;-95
2022/03/09 07:20:41;;;;;;;1.47;1.37;;;2.60;99.90;;;;;;5032961;28;20258;-92
2022/03/09 07:23:06;;;;;;;1.30;1.20;;;2.70;99.90;;;;;;5030815;28;20191;-91
2022/03/09 07:25:34;;;;;;;4.87;2.13;;;3.10;99.90;;;;;;5025779;28;20191;-92
2022/03/09 07:28:01;;;;;;;1.20;1.10;;;3.20;99.90;;;;;;5029001;28;20211;-93
2022/03/09 07:30:26;;;;;;;1.13;1.03;;;3.40;99.90;;;;;;5032129;28;20422;-95
2022/03/09 07:32:52;;;;;;;1.50;1.20;;;3.50;99.90;;;;;;5032115;28;20442;-94
2022/03/09 07:35:17;;;;;;;1.77;1.53;;;3.70;99.90;;;;;;5008165;28;20214;-94
2022/03/09 07:37:43;;;;;;;1.10;1.00;;;3.90;99.90;;;;;;5021801;28;20655;-95
2022/03/09 07:40:09;;;;;;;1.37;1.27;;;4.10;99.90;;;;;;5012949;28;20180;-94
2022/03/09 07:42:35;;;;;;;0.97;0.87;;;4.20;99.90;;;;;;5027845;28;20184;-94
2022/03/09 07:45:03;;;;;;;0.90;0.80;;;4.30;99.90;;;;;;5034299;28;20752;-94
2022/03/09 07:47:28;;;;;;;1.63;1.03;;;4.50;99.90;;;;;;5033182;28;20782;-95
2022/03/09 07:49:54;;;;;;;2.33;2.13;;;4.70;99.90;;;;;;5030912;28;20449;-93
2022/03/09 07:52:20;;;;;;;1.00;0.90;;;4.80;99.90;;;;;;5028181;28;20182;-94
2022/03/09 07:54:45;;;;;;;1.03;0.93;;;4.90;99.90;;;;;;5030809;28;20450;-94
2022/03/09 07:57:11;;;;;;;1.23;1.10;;;5.00;99.90;;;;;;5028478;28;20222;-93
2022/03/09 07:59:36;;;;;;;1.10;1.00;;;5.20;99.90;;;;;;5030424;28;20179;-94
2022/03/09 08:02:02;;;;;;;1.00;0.90;;;5.40;99.90;;;;;;5009122;28;20199;-93
2022/03/09 08:04:28;;;;;;;1.07;0.97;;;5.30;99.90;;;;;;5025753;28;20213;-93
2022/03/09 08:06:54;;;;;;;1.80;1.70;;;5.50;99.90;;;;;;5027690;28;20195;-93
2022/03/09 08:09:19;;;;;;;1.37;1.20;;;5.50;99.90;;;;;;5035372;28;20192;-93
2022/03/09 08:11:45;;;;;;;0.90;0.77;;;5.60;99.90;;;;;;5025838;28;20458;-92
2022/03/09 08:14:13;;;;;;;1.40;1.30;;;5.60;99.90;;;;;;5028085;28;21460;-93
2022/03/09 08:16:39;;;;;;;1.47;1.37;;;5.90;99.90;;;;;;5029667;28;20478;-90
2022/03/09 08:19:05;;;;;;;0.97;0.87;;;6.00;99.90;;;;;;5008618;28;20526;-88
2022/03/09 08:21:31;;;;;;;0.83;0.70;;;6.20;99.90;;;;;;5028718;28;20199;-91
2022/03/09 08:23:57;;;;;;;0.90;0.77;;;6.10;99.90;;;;;;5022482;28;20526;-91
2022/03/09 08:26:22;;;;;;;0.80;0.70;;;6.30;99.90;;;;;;5028801;28;20534;-90
2022/03/09 08:28:48;;;;;;;0.90;0.70;;;6.40;99.90;;;;;;5030055;28;20485;-89
2022/03/09 08:31:13;;;;;;;1.97;1.33;;;6.40;99.90;;;;;;5028780;28;20179;-89
2022/03/09 08:33:41;;;;;;;1.03;0.93;;;6.40;99.90;;;;;;5011958;28;20271;-90
2022/03/09 08:36:07;;;;;;;1.97;1.77;;;6.40;99.90;;;;;;5023444;28;20214;-90
2022/03/09 08:38:32;;;;;;;1.00;0.90;;;6.30;99.90;;;;;;5014076;28;20844;-89
2022/03/09 08:40:58;;;;;;;0.90;0.70;;;6.50;99.90;;;;;;5012710;28;20655;-90
2022/03/09 08:43:23;;;;;;;0.90;0.80;;;6.70;99.90;;;;;;5029589;28;20708;-87
2022/03/09 08:45:49;;;;;;;0.90;0.70;;;7.10;99.90;;;;;;5017990;28;20747;-88
2022/03/09 08:48:15;;;;;;;1.07;0.80;;;7.10;99.90;;;;;;5028796;28;20314;-88
2022/03/09 08:50:40;;;;;;;0.80;0.60;;;7.30;99.90;;;;;;5003278;28;20207;-89
2022/03/09 08:53:06;;;;;;;1.23;1.13;;;7.40;99.90;;;;;;5030084;28;20237;-88
2022/03/09 08:55:32;;;;;;;1.37;1.27;;;7.40;99.90;;;;;;5029223;28;20293;-88
2022/03/09 08:57:58;;;;;;;1.40;1.30;;;7.40;99.90;;;;;;5022268;28;20195;-88
2022/03/09 09:00:24;;;;;;;2.03;1.47;;;7.50;99.90;;;;;;5026874;28;20209;-89
2022/03/09 09:02:50;;;;;;;0.83;0.67;;;7.50;99.90;;;;;;5007502;28;20543;-89
2022/03/09 09:05:15;;;;;;;0.80;0.60;;;7.80;99.90;;;;;;5027569;28;20482;-86
2022/03/09 09:07:41;;;;;;;1.50;1.00;;;7.80;99.90;;;;;;5023162;28;20753;-87
2022/03/09 09:10:07;;;;;;;1.20;1.10;;;8.10;99.90;;;;;;5021231;28;20982;-88
2022/03/09 09:12:33;;;;;;;0.90;0.70;;;8.00;99.90;;;;;;5027533;28;20202;-87
2022/03/09 09:14:59;;;;;;;0.90;0.80;;;7.90;99.90;;;;;;5028452;28;20437;-89
2022/03/09 09:17:24;;;;;;;1.30;1.20;;;8.30;99.90;;;;;;5030934;28;20486;-93
2022/03/09 09:19:50;;;;;;;0.90;0.70;;;8.20;99.90;;;;;;5012583;28;20192;-90
2022/03/09 09:22:16;;;;;;;2.83;1.90;;;8.10;99.90;;;;;;5013109;28;20184;-87
2022/03/09 09:24:41;;;;;;;1.00;0.80;;;8.50;99.90;;;;;;5013390;28;20418;-92
2022/03/09 09:27:07;;;;;;;0.90;0.70;;;8.60;99.90;;;;;;5029095;28;20271;-89
2022/03/09 09:29:33;;;;;;;1.30;1.00;;;8.60;99.90;;;;;;5033613;28;20222;-90
2022/03/09 09:31:58;;;;;;;0.90;0.70;;;9.00;99.90;;;;;;5010376;28;20250;-90
2022/03/09 09:34:24;;;;;;;0.90;0.80;;;9.20;99.90;;;;;;5030601;28;20239;-89
2022/03/09 09:36:50;;;;;;;1.10;0.70;;;9.60;99.90;;;;;;5014951;28;20226;-86
2022/03/09 09:39:17;;;;;;;0.80;0.60;;;9.60;99.90;;;;;;5017349;28;20249;-83
2022/03/09 09:41:44;;;;;;;0.93;0.77;;;10.10;99.90;;;;;;5023168;28;20457;-86
2022/03/09 09:44:14;;;;;;;0.90;0.70;;;10.00;99.90;;;;;;5033463;28;20421;-85
2022/03/09 09:46:40;;;;;;;0.90;0.80;;;9.90;99.90;;;;;;5028790;28;20811;-86
2022/03/09 09:49:08;;;;;;;0.90;0.77;;;10.30;99.90;;;;;;5001929;28;20530;-85
2022/03/09 09:51:37;;;;;;;0.90;0.70;;;10.40;99.90;;;;;;5029200;28;20815;-85
2022/03/09 09:54:03;;;;;;;0.90;0.60;;;10.60;99.90;;;;;;5012795;28;20470;-86
2022/03/09 09:56:29;;;;;;;0.90;0.70;;;10.70;99.90;;;;;;5031353;28;20532;-83
2022/03/09 09:58:56;;;;;;;2.03;0.90;;;10.70;98.60;;;;;;5028999;28;20450;-85
2022/03/09 10:01:21;;;;;;;3.07;1.10;;;10.60;99.30;;;;;;5009543;28;20504;-84
2022/03/09 10:03:47;;;;;;;0.90;0.60;;;10.80;98.70;;;;;;5024506;28;20438;-83
2022/03/09 10:06:13;;;;;;;1.00;0.80;;;10.40;97.60;;;;;;5030904;28;20199;-83
2022/03/09 10:08:39;;;;;;;0.90;0.60;;;11.10;98.40;;;;;;5013245;28;20222;-84
2022/03/09 10:11:05;;;;;;;0.90;0.70;;;11.40;96.80;;;;;;5030639;28;20540;-83
2022/03/09 10:13:36;;;;;;;2.07;0.83;;;11.20;96.20;;;;;;5029252;28;20453;-84
2022/03/09 10:16:20;;;;;;;1.40;1.27;;;11.80;95.20;;;;;;5022042;28;20466;-85
2022/03/09 10:18:56;;;;;;;2.50;1.17;;;12.00;93.40;;;;;;5005506;28;20525;-87
2022/03/09 10:21:28;;;;;;;1.17;1.07;;;12.10;92.60;;;;;;5028481;28;20418;-87
2022/03/09 10:24:02;;;;;;;2.90;0.73;;;12.10;93.30;;;;;;5030896;28;20445;-88
2022/03/09 10:26:48;;;;;;;1.10;1.00;;;12.40;92.10;;;;;;5030013;28;20422;-87
2022/03/09 10:29:18;;;;;;;1.40;1.27;;;12.90;91.90;;;;;;5019951;28;20901;-87
2022/03/09 10:31:47;;;;;;;0.90;0.70;;;12.80;91.40;;;;;;5028823;28;20492;-89
2022/03/09 10:34:24;;;;;;;0.93;0.70;;;12.60;86.50;;;;;;5032517;28;21021;-88
2022/03/09 10:36:56;;;;;;;0.90;0.50;;;13.10;89.70;;;;;;5035474;28;20534;-89
2022/03/09 10:39:24;;;;;;;0.90;0.50;;;13.70;88.60;;;;;;5031358;28;20437;-88
2022/03/09 10:41:50;;;;;;;1.07;0.70;;;14.40;89.60;;;;;;5029185;28;20878;-91
2022/03/09 10:44:16;;;;;;;1.07;0.73;;;14.00;86.80;;;;;;5030344;28;20446;-89
2022/03/09 10:46:46;;;;;;;1.43;1.13;;;13.80;81.10;;;;;;5028842;28;20451;-88
2022/03/09 10:49:14;;;;;;;1.10;0.80;;;13.90;83.80;;;;;;5031455;28;20663;-88
2022/03/09 10:51:47;;;;;;;0.90;0.60;;;14.10;82.30;;;;;;5029075;28;20821;-88
2022/03/09 10:54:23;;;;;;;0.90;0.60;;;14.10;79.40;;;;;;5030474;28;20985;-88
2022/03/09 10:56:49;;;;;;;2.50;1.77;;;14.50;77.50;;;;;;5031812;28;20489;-87
2022/03/09 10:59:20;;;;;;;2.03;1.83;;;14.60;82.30;;;;;;5031803;28;20430;-87
2022/03/09 11:02:06;;;;;;;1.00;0.60;;;14.40;74.90;;;;;;5028448;28;20942;-88
2022/03/09 11:04:34;;;;;;;0.90;0.60;;;14.30;76.10;;;;;;5012774;28;20450;-89
2022/03/09 11:07:00;;;;;;;1.10;0.90;;;14.90;75.20;;;;;;5032086;28;20457;-89
2022/03/09 11:09:29;;;;;;;1.10;0.70;;;15.10;74.70;;;;;;5027783;28;20942;-88
2022/03/09 11:11:55;;;;;;;0.90;0.50;;;15.20;69.90;;;;;;5011541;28;20222;-88
2022/03/09 11:14:25;;;;;;;0.90;0.70;;;14.60;73.20;;;;;;5013674;28;20950;-90
2022/03/09 11:16:52;;;;;;;1.10;0.80;;;14.50;71.40;;;;;;5012984;28;20489;-89
2022/03/09 11:19:21;;;;;;;1.00;0.63;;;14.20;71.20;;;;;;5014067;28;20434;-90
2022/03/09 11:21:47;;;;;;;0.90;0.50;;;14.40;73.60;;;;;;5013419;28;20545;-90
2022/03/09 11:24:15;;;;;;;0.90;0.63;;;15.10;73.70;;;;;;5012784;28;20468;-88
2022/03/09 11:26:54;;;;;;;0.90;0.57;;;14.60;73.20;;;;;;5022375;28;21318;-90
2022/03/09 11:29:35;;;;;;;1.67;1.57;;;14.70;72.20;;;;;;5019760;28;20557;-89
2022/03/09 11:32:02;;;;;;;0.90;0.50;;;15.40;73.50;;;;;;5024276;28;20471;-87
2022/03/09 11:34:35;;;;;;;0.90;0.60;;;15.70;71.60;;;;;;5026872;28;20442;-89
2022/03/09 11:37:02;;;;;;;0.90;0.57;;;16.00;76.90;;;;;;5028181;28;20509;-91
2022/03/09 11:39:28;;;;;;;0.90;0.60;;;16.60;69.00;;;;;;5028144;28;20525;-91
2022/03/09 11:42:19;;;;;;;1.23;0.70;;;16.50;66.70;;;;;;5029161;28;20552;-91
2022/03/09 11:44:45;;;;;;;0.90;0.47;;;16.00;64.10;;;;;;5020877;28;20204;-92
2022/03/09 11:47:11;;;;;;;0.90;0.60;;;15.90;61.60;;;;;;5025710;28;20442;-86
2022/03/09 11:49:41;;;;;;;0.93;0.70;;;15.50;60.50;;;;;;5031411;28;20446;-91
2022/03/09 11:52:12;;;;;;;3.07;0.80;;;16.30;63.10;;;;;;5025330;28;20941;-92
2022/03/09 11:54:44;;;;;;;0.90;0.73;;;16.90;63.60;;;;;;5008402;28;20446;-89
2022/03/09 11:57:12;;;;;;;2.80;1.10;;;16.00;60.50;;;;;;5024790;28;20500;-90
2022/03/09 11:59:39;;;;;;;0.90;0.50;;;16.50;59.80;;;;;;5026470;28;20450;-89
2022/03/09 12:02:11;;;;;;;1.40;0.90;;;16.70;62.40;;;;;;5025526;28;21448;-90
2022/03/09 12:04:40;;;;;;;0.90;0.50;;;17.40;63.50;;;;;;5025555;28;20784;-88
2022/03/09 12:07:10;;;;;;;0.90;0.50;;;17.10;59.50;;;;;;5020526;28;20973;-88
2022/03/09 12:09:57;;;;;;;1.10;0.93;;;17.80;62.50;;;;;;5006641;28;20469;-90
2022/03/09 12:12:24;;;;;;;0.90;0.60;;;17.60;60.50;;;;;;5017836;28;20439;-89
2022/03/09 12:15:03;;;;;;;0.87;0.50;;;18.60;64.10;;;;;;5015838;28;20438;-89
2022/03/09 12:17:34;;;;;;;0.80;0.50;;;18.60;61.80;;;;;;5017862;28;20485;-90
2022/03/09 12:20:23;;;;;;;0.90;0.60;;;18.90;61.00;;;;;;5000179;28;20953;-90
2022/03/09 12:23:00;;;;;;;0.80;0.40;;;18.50;58.00;;;;;;5021675;28;20488;-89
2022/03/09 12:25:37;;;;;;;1.03;0.63;;;18.10;58.50;;;;;;5028457;28;20470;-91
2022/03/09 12:28:21;;;;;;;0.80;0.40;;;17.90;60.00;;;;;;5029692;28;20469;-91
2022/03/09 12:31:07;;;;;;;1.60;0.70;;;17.90;58.70;;;;;;5021571;28;20449;-89
2022/03/09 12:33:38;;;;;;;0.90;0.60;;;17.00;57.80;;;;;;5016528;28;20679;-90
2022/03/09 12:36:13;;;;;;;0.80;0.50;;;17.90;58.30;;;;;;5028892;28;20482;-88
2022/03/09 12:38:46;;;;;;;1.23;0.70;;;17.80;57.40;;;;;;5027729;28;20494;-87
2022/03/09 12:41:37;;;;;;;1.90;0.60;;;17.60;56.20;;;;;;5026789;28;20493;-87
2022/03/09 12:44:14;;;;;;;0.80;0.40;;;17.50;55.50;;;;;;5028767;28;20418;-87
2022/03/09 12:46:41;;;;;;;1.33;1.03;;;18.00;56.30;;;;;;5026356;28;20452;-88
2022/03/09 12:49:10;;;;;;;1.20;1.00;;;17.70;57.30;;;;;;5026661;28;20508;-87
2022/03/09 12:51:38;;;;;;;1.60;0.70;;;18.20;56.40;;;;;;5030293;28;20425;-88
2022/03/09 12:54:05;;;;;;;0.80;0.40;;;18.80;58.10;;;;;;5023359;28;20450;-89
2022/03/09 12:56:31;;;;;;;1.20;0.70;;;19.20;55.20;;;;;;5022431;28;20486;-90
2022/03/09 12:59:11;;;;;;;1.00;0.63;;;18.30;54.30;;;;;;5023762;28;20445;-90